createdAt,value
2019-01-05T00:01:06.674Z,27.10
2019-01-05T00:03:47.205Z,26.17
2019-01-05T00:06:47.799Z,25.17
2019-01-05T00:09:49.574Z,26.87
2019-01-05T00:15:40.603Z,26.73
2019-01-05T00:18:30.355Z,23.30
2019-01-05T00:21:23.347Z,28.67
2019-01-05T00:24:15.890Z,25.07
2019-01-05T00:27:08.042Z,24.73
2019-01-05T00:30:04.889Z,27.07
2019-01-05T00:32:56.295Z,30.13
2019-01-05T00:35:55.347Z,26.73
2019-01-05T00:38:51.866Z,27.87
2019-01-05T00:41:47.015Z,23.63
2019-01-05T00:44:36.739Z,30.50
2019-01-05T00:47:24.979Z,24.67
2019-01-05T00:50:23.763Z,26.27
2019-01-05T00:53:11.983Z,31.30
2019-01-05T00:56:09.444Z,27.80
2019-01-05T00:58:57.594Z,27.57
2019-01-05T01:01:58.958Z,25.50
2019-01-05T01:05:00.248Z,28.43
2019-01-05T01:07:48.357Z,30.70
2019-01-05T01:10:30.077Z,25.90
2019-01-05T01:13:24.386Z,31.53
2019-01-05T01:16:12.860Z,24.43
2019-01-05T01:19:01.577Z,31.17
2019-01-05T01:22:02.993Z,22.13
2019-01-05T01:24:55.311Z,24.67
2019-01-05T01:27:43.379Z,22.57
2019-01-05T01:30:39.139Z,19.77
2019-01-05T01:33:34.286Z,19.47
2019-01-05T01:36:23.762Z,16.63
2019-01-05T01:39:24.820Z,14.40
2019-01-05T01:42:12.627Z,13.60
2019-01-05T01:45:05.489Z,14.70
2019-01-05T01:51:13.185Z,14.80
2019-01-05T01:54:18.681Z,13.83
2019-01-05T01:57:11.725Z,11.00
2019-01-05T02:00:07.927Z,7.97
2019-01-05T02:03:05.978Z,8.83
2019-01-05T02:06:01.347Z,9.00
2019-01-05T02:09:02.216Z,9.87
2019-01-05T02:11:55.582Z,10.70
2019-01-05T02:14:50.588Z,7.87
2019-01-05T02:17:48.687Z,8.40
2019-01-05T02:20:44.773Z,7.27
2019-01-05T02:24:03.258Z,10.40
2019-01-05T02:27:23.315Z,9.63
2019-01-05T02:30:40.869Z,10.27
2019-01-05T02:33:51.628Z,8.63
2019-01-05T02:37:03.346Z,8.53
2019-01-05T02:40:16.757Z,7.90
2019-01-05T02:43:53.549Z,8.87
2019-01-05T02:47:26.592Z,6.63
2019-01-05T02:50:39.618Z,9.10
2019-01-05T02:54:05.473Z,7.57
2019-01-05T02:57:47.911Z,5.53
2019-01-05T03:01:15.127Z,7.40
2019-01-05T03:04:52.394Z,8.60
2019-01-05T03:08:10.409Z,8.97
2019-01-05T03:11:42.900Z,8.70
2019-01-05T03:15:30.337Z,7.33
2019-01-05T03:19:21.177Z,9.30
2019-01-05T03:22:45.239Z,8.30
2019-01-05T03:26:25.501Z,8.53
2019-01-05T03:29:33.808Z,9.00
2019-01-05T03:32:49.763Z,8.70
2019-01-05T03:36:27.348Z,7.73
2019-01-05T03:40:00.636Z,6.60
2019-01-05T03:43:30.842Z,9.57
2019-01-05T03:47:03.559Z,6.27
2019-01-05T03:50:50.395Z,5.90
2019-01-05T03:54:22.452Z,8.23
2019-01-05T03:57:54.014Z,9.17
2019-01-05T04:01:38.359Z,14.13
2019-01-05T04:05:12.215Z,7.13
2019-01-05T04:08:52.664Z,6.93
2019-01-05T04:12:39.140Z,8.87
2019-01-05T04:16:09.931Z,8.80
2019-01-05T04:19:42.014Z,11.33
2019-01-05T04:23:10.733Z,8.97
2019-01-05T04:26:50.768Z,8.70
2019-01-05T04:30:03.758Z,9.60
2019-01-05T04:33:26.970Z,7.80
2019-01-05T04:36:40.107Z,9.20
2019-01-05T04:39:50.398Z,8.93
2019-01-05T04:43:18.349Z,5.40
2019-01-05T04:47:11.551Z,6.60
2019-01-05T04:50:42.486Z,7.80
2019-01-05T04:54:14.279Z,8.37
2019-01-05T04:57:27.808Z,7.43
2019-01-05T05:00:47.225Z,7.90
2019-01-05T05:04:47.583Z,11.43
2019-01-05T05:08:18.049Z,7.27
2019-01-05T05:11:40.335Z,4.87
2019-01-05T05:15:02.611Z,5.07
2019-01-05T05:18:57.718Z,4.97
2019-01-05T05:22:36.243Z,5.03
2019-01-05T05:25:58.494Z,6.23
2019-01-05T05:29:48.411Z,4.53
2019-01-05T05:33:06.804Z,5.40
2019-01-05T05:36:42.681Z,3.63
2019-01-05T05:40:12.155Z,3.37
2019-01-05T05:43:52.955Z,3.67
2019-01-05T05:47:22.080Z,2.33
2019-01-05T05:51:00.998Z,4.03
2019-01-05T05:54:45.458Z,5.10
2019-01-05T05:58:27.776Z,4.07
2019-01-05T06:02:11.176Z,5.83
2019-01-05T06:05:40.880Z,3.50
2019-01-05T06:09:26.949Z,5.10
2019-01-05T06:13:13.133Z,2.40
2019-01-05T06:16:42.054Z,4.70
2019-01-05T06:20:26.126Z,4.10
2019-01-05T06:23:42.927Z,3.67
2019-01-05T06:27:06.614Z,2.60
2019-01-05T06:30:41.515Z,5.63
2019-01-05T06:34:09.468Z,6.60
2019-01-05T06:37:35.432Z,4.47
2019-01-05T06:40:57.425Z,2.90
2019-01-05T06:44:27.379Z,4.30
2019-01-05T06:48:14.442Z,5.13
2019-01-05T06:51:55.358Z,3.80
2019-01-05T06:55:19.432Z,5.50
2019-01-05T06:58:44.451Z,3.07
2019-01-05T07:02:07.175Z,3.53
2019-01-05T07:05:39.147Z,3.10
2019-01-05T07:09:12.253Z,4.20
2019-01-05T07:12:46.159Z,3.60
2019-01-05T07:16:12.795Z,4.80
2019-01-05T07:19:40.595Z,6.60
2019-01-05T07:23:22.413Z,4.80
2019-01-05T07:26:46.005Z,7.47
2019-01-05T07:30:23.201Z,4.10
2019-01-05T07:33:51.659Z,3.70
2019-01-05T07:37:25.051Z,6.73
2019-01-05T07:40:48.943Z,6.33
2019-01-05T07:44:25.765Z,5.60
2019-01-05T07:47:56.367Z,7.13
2019-01-05T07:51:36.655Z,3.87
2019-01-05T07:55:06.255Z,4.20
2019-01-05T07:58:43.216Z,4.67
2019-01-05T08:02:21.043Z,5.57
2019-01-05T08:05:59.434Z,4.43
2019-01-05T08:09:43.696Z,3.83
2019-01-05T08:13:46.122Z,8.17
2019-01-05T08:17:31.710Z,5.53
2019-01-05T08:24:03.218Z,4.80
2019-01-05T08:27:26.188Z,5.53
2019-01-05T08:30:47.692Z,2.53
2019-01-05T08:34:16.680Z,3.90
2019-01-05T08:37:32.932Z,3.87
2019-01-05T08:44:38.082Z,3.60
2019-01-05T08:48:13.623Z,4.13
2019-01-05T08:54:45.733Z,2.90
2019-01-05T08:58:11.844Z,3.90
2019-01-05T09:05:07.032Z,2.20
2019-01-05T09:08:06.672Z,4.63
2019-01-05T09:11:30.786Z,3.60
2019-01-05T09:14:55.961Z,3.27
2019-01-05T09:18:24.681Z,4.23
2019-01-05T09:22:13.166Z,4.40
2019-01-05T09:25:55.792Z,4.27
2019-01-05T09:29:42.673Z,5.10
2019-01-05T09:33:11.499Z,5.23
2019-01-05T09:36:37.909Z,3.57
2019-01-05T09:40:06.214Z,5.17
2019-01-05T09:43:40.723Z,6.37
2019-01-05T09:47:28.148Z,4.57
2019-01-05T09:51:01.051Z,5.27
2019-01-05T09:54:38.080Z,6.90
2019-01-05T09:58:08.338Z,5.70
2019-01-05T10:01:33.411Z,8.37
2019-01-05T10:05:04.315Z,7.40
2019-01-05T10:08:51.354Z,7.07
2019-01-05T10:12:28.669Z,7.50
2019-01-05T10:16:12.985Z,8.90
2019-01-05T10:20:13.438Z,7.50
2019-01-05T10:24:05.092Z,8.70
2019-01-05T10:27:32.856Z,10.20
2019-01-05T10:31:05.893Z,10.23
2019-01-05T10:34:49.842Z,11.60
2019-01-05T10:38:31.622Z,9.10
2019-01-05T10:42:03.247Z,9.40
2019-01-05T10:45:21.757Z,10.07
2019-01-05T10:48:26.691Z,13.20
2019-01-05T10:51:56.823Z,10.43
2019-01-05T10:55:42.297Z,16.03
2019-01-05T10:59:14.764Z,10.47
2019-01-05T11:02:46.255Z,9.07
2019-01-05T11:06:17.539Z,12.20
2019-01-05T11:09:30.842Z,8.63
2019-01-05T11:13:18.677Z,12.27
2019-01-05T11:17:00.408Z,9.80
2019-01-05T11:20:36.493Z,7.50
2019-01-05T11:24:27.751Z,9.60
2019-01-05T11:28:12.664Z,8.30
2019-01-05T11:32:15.474Z,11.67
2019-01-05T11:35:39.671Z,9.50
2019-01-05T11:39:21.117Z,8.47
2019-01-05T11:42:43.566Z,9.27
2019-01-05T11:45:58.843Z,10.93
2019-01-05T11:50:08.719Z,11.40
2019-01-05T11:53:36.091Z,13.30
2019-01-05T11:57:01.535Z,10.40
2019-01-05T12:00:21.586Z,11.70
2019-01-05T12:04:18.169Z,8.87
2019-01-05T12:07:37.988Z,9.07
2019-01-05T12:11:04.083Z,11.03
2019-01-05T12:14:28.132Z,9.87
2019-01-05T12:18:10.201Z,11.07
2019-01-05T12:21:30.136Z,8.90
2019-01-05T12:25:19.536Z,8.57
2019-01-05T12:28:46.034Z,9.17
2019-01-05T12:32:07.642Z,13.57
2019-01-05T12:35:48.816Z,11.40
2019-01-05T12:39:29.082Z,10.00
2019-01-05T12:42:52.947Z,10.07
2019-01-05T12:46:16.839Z,9.60
2019-01-05T12:49:56.959Z,10.50
2019-01-05T12:54:01.826Z,9.87
2019-01-05T12:57:27.680Z,9.83
2019-01-05T13:01:05.236Z,8.53
2019-01-05T13:04:31.396Z,12.73
2019-01-05T13:08:18.860Z,10.00
2019-01-05T13:11:40.987Z,11.40
2019-01-05T13:15:20.696Z,12.20
2019-01-05T13:18:58.427Z,10.53
2019-01-05T13:22:09.453Z,12.17
2019-01-05T13:25:34.073Z,9.13
2019-01-05T13:29:22.170Z,11.23
2019-01-05T13:32:48.196Z,13.40
2019-01-05T13:36:39.156Z,11.60
2019-01-05T13:40:13.205Z,10.00
2019-01-05T13:43:48.154Z,9.67
2019-01-05T13:47:32.196Z,11.00
2019-01-05T13:51:08.659Z,10.60
2019-01-05T13:54:02.177Z,11.73
2019-01-05T13:57:17.165Z,13.07
2019-01-05T14:00:00.311Z,11.37
2019-01-05T14:02:47.846Z,11.70
2019-01-05T14:05:35.843Z,10.93
2019-01-05T14:08:31.100Z,13.03
2019-01-05T14:11:22.493Z,13.43
2019-01-05T14:14:11.605Z,11.07
2019-01-05T14:16:59.807Z,11.43
2019-01-05T14:19:47.588Z,10.90
2019-01-05T14:22:36.703Z,12.37
2019-01-05T14:25:28.774Z,10.60
2019-01-05T14:28:27.269Z,10.67
2019-01-05T14:31:14.887Z,11.67
2019-01-05T14:34:06.753Z,12.57
2019-01-05T14:37:06.937Z,15.93
2019-01-05T14:39:55.156Z,10.33
2019-01-05T14:42:43.172Z,12.07
2019-01-05T14:48:10.164Z,10.40
2019-01-05T14:51:08.414Z,9.47
2019-01-05T14:54:07.375Z,10.20
2019-01-05T14:57:09.209Z,10.53
2019-01-05T15:00:01.192Z,11.63
2019-01-05T15:02:51.850Z,9.83
2019-01-05T15:05:39.929Z,11.37
2019-01-05T15:08:28.078Z,12.53
2019-01-05T15:11:15.869Z,11.53
2019-01-05T15:14:03.637Z,13.20
2019-01-05T15:17:07.926Z,12.07
2019-01-05T15:19:59.940Z,12.80
2019-01-05T15:22:49.074Z,11.00
2019-01-05T15:25:53.586Z,9.13
2019-01-05T15:28:40.405Z,13.07
2019-01-05T15:31:35.688Z,11.43
2019-01-05T15:34:30.593Z,10.97
2019-01-05T15:37:25.767Z,10.57
2019-01-05T15:40:13.978Z,8.47
2019-01-05T15:43:06.094Z,10.97
2019-01-05T15:46:02.451Z,10.67
2019-01-05T15:49:02.077Z,10.47
2019-01-05T15:51:52.509Z,12.20
2019-01-05T15:54:54.419Z,9.73
2019-01-05T15:58:00.383Z,11.33
2019-01-05T16:00:58.766Z,11.27
2019-01-05T16:03:50.682Z,14.07
2019-01-05T16:06:39.791Z,9.70
2019-01-05T16:09:27.647Z,11.57
2019-01-05T16:12:17.009Z,10.73
2019-01-05T16:15:15.719Z,14.75
2019-01-05T16:18:03.364Z,12.23
2019-01-05T16:20:56.652Z,13.20
2019-01-05T16:23:57.910Z,11.13
2019-01-05T16:26:45.679Z,10.53
2019-01-05T16:29:39.316Z,12.27
2019-01-05T16:32:28.432Z,11.97
2019-01-05T16:35:21.095Z,12.57
2019-01-05T16:38:11.038Z,13.73
2019-01-05T16:40:58.471Z,12.17
2019-01-05T16:43:45.501Z,16.13
2019-01-05T16:46:30.471Z,15.03
2019-01-05T16:49:21.566Z,11.83
2019-01-05T16:52:09.442Z,15.07
2019-01-05T16:55:01.178Z,15.30
2019-01-05T16:57:59.762Z,16.13
2019-01-05T17:01:01.046Z,21.10
2019-01-05T17:03:48.823Z,18.97
2019-01-05T17:06:31.945Z,19.97
2019-01-05T17:09:17.079Z,16.33
2019-01-05T17:12:04.786Z,21.20
2019-01-05T17:15:02.075Z,16.33
2019-01-05T17:18:04.896Z,20.47
2019-01-05T17:20:53.306Z,16.90
2019-01-05T17:23:41.376Z,18.17
2019-01-05T17:26:34.435Z,18.10
2019-01-05T17:29:24.120Z,16.33
2019-01-05T17:32:13.217Z,18.70
2019-01-05T17:35:08.514Z,18.00
2019-01-05T17:38:00.825Z,14.60
2019-01-05T17:40:49.169Z,14.57
2019-01-05T17:43:50.818Z,18.27
2019-01-05T17:46:43.383Z,14.53
2019-01-05T17:49:35.820Z,19.47
2019-01-05T17:52:27.723Z,16.10
2019-01-05T17:55:16.817Z,14.37
2019-01-05T17:58:07.752Z,17.40
2019-01-05T18:01:02.666Z,18.23
2019-01-05T18:03:50.754Z,18.23
2019-01-05T18:06:32.404Z,17.90
2019-01-05T18:09:26.727Z,16.23
2019-01-05T18:12:14.707Z,17.17
2019-01-05T18:15:04.195Z,18.03
2019-01-05T18:17:46.782Z,15.20
2019-01-05T18:20:51.126Z,15.23
2019-01-05T18:23:38.885Z,17.70
2019-01-05T18:26:31.065Z,20.70
2019-01-05T18:29:18.928Z,17.53
2019-01-05T18:32:08.057Z,21.47
2019-01-05T18:35:00.528Z,18.87
2019-01-05T18:37:55.681Z,18.80
2019-01-05T18:40:48.367Z,17.73
2019-01-05T18:43:31.538Z,16.77
2019-01-05T18:46:26.857Z,16.67
2019-01-05T18:49:10.745Z,15.47
2019-01-05T18:52:13.188Z,14.20
2019-01-05T18:55:01.390Z,17.10
2019-01-05T18:57:49.524Z,15.47
2019-01-05T19:00:37.439Z,18.63
2019-01-05T19:03:29.465Z,15.70
2019-01-05T19:06:17.507Z,17.37
2019-01-05T19:09:25.204Z,16.70
2019-01-05T19:12:26.738Z,16.53
2019-01-05T19:15:21.657Z,12.93
2019-01-05T19:18:06.934Z,18.80
2019-01-05T19:20:55.380Z,17.23
2019-01-05T19:23:47.722Z,16.73
2019-01-05T19:26:36.037Z,13.70
2019-01-05T19:29:28.205Z,17.60
2019-01-05T19:32:23.339Z,16.43
2019-01-05T19:35:11.513Z,12.93
2019-01-05T19:38:15.723Z,14.97
2019-01-05T19:41:07.739Z,16.03
2019-01-05T19:43:55.497Z,17.70
2019-01-05T19:46:47.767Z,14.23
2019-01-05T19:49:28.884Z,14.17
2019-01-05T19:52:16.914Z,15.57
2019-01-05T19:55:06.077Z,13.57
2019-01-05T19:58:01.366Z,14.63
2019-01-05T20:00:42.826Z,13.80
2019-01-05T20:03:32.355Z,14.03
2019-01-05T20:06:29.706Z,13.97
2019-01-05T20:09:24.998Z,14.80
2019-01-05T20:12:26.430Z,15.60
2019-01-05T20:15:15.574Z,15.77
2019-01-05T20:18:04.667Z,16.77
2019-01-05T20:21:06.095Z,14.27
2019-01-05T20:23:50.089Z,15.50
2019-01-05T20:26:48.091Z,17.27
2019-01-05T20:29:42.762Z,15.77
2019-01-05T20:32:29.489Z,16.43
2019-01-05T20:35:17.943Z,16.03
2019-01-05T20:38:13.057Z,13.63
2019-01-05T20:41:01.046Z,17.20
2019-01-05T20:44:08.334Z,20.50
2019-01-05T20:47:04.847Z,19.40
2019-01-05T20:49:52.646Z,18.77
2019-01-05T20:52:48.869Z,16.27
2019-01-05T20:55:37.417Z,18.37
2019-01-05T20:58:38.935Z,18.70
2019-01-05T21:01:29.212Z,18.97
2019-01-05T21:04:18.768Z,15.10
2019-01-05T21:07:13.743Z,16.27
2019-01-05T21:10:02.836Z,16.00
2019-01-05T21:12:51.387Z,16.73
2019-01-05T21:15:39.346Z,16.73
2019-01-05T21:18:23.380Z,14.77
2019-01-05T21:21:27.897Z,15.63
2019-01-05T21:24:14.928Z,14.77
2019-01-05T21:27:16.427Z,18.23
2019-01-05T21:30:00.352Z,15.37
2019-01-05T21:32:43.665Z,13.13
2019-01-05T21:35:32.800Z,13.67
2019-01-05T21:38:24.861Z,18.33
2019-01-05T21:41:13.071Z,16.73
2019-01-05T21:44:17.493Z,14.63
2019-01-05T21:47:24.750Z,16.67
2019-01-05T21:50:26.580Z,15.50
2019-01-05T21:53:14.305Z,19.83
2019-01-05T21:56:05.765Z,15.77
2019-01-05T21:59:01.076Z,16.30
2019-01-05T22:02:03.542Z,17.13
2019-01-05T22:05:09.896Z,17.20
2019-01-05T22:08:15.800Z,18.17
2019-01-05T22:11:07.705Z,15.47
2019-01-05T22:14:14.027Z,16.33
2019-01-05T22:17:05.931Z,15.77
2019-01-05T22:19:56.071Z,20.27
2019-01-05T22:23:06.175Z,16.87
2019-01-05T22:25:55.303Z,18.53
2019-01-05T22:28:44.435Z,17.47
2019-01-05T22:31:32.824Z,17.03
2019-01-05T22:34:24.848Z,16.30
2019-01-05T22:37:17.372Z,17.47
2019-01-05T22:40:03.122Z,19.30
2019-01-05T22:42:58.583Z,18.73
2019-01-05T22:45:46.565Z,18.20
2019-01-05T22:48:42.826Z,18.40
2019-01-05T22:51:31.199Z,18.27
2019-01-05T22:54:32.701Z,17.17
2019-01-05T22:57:20.593Z,18.60
2019-01-05T23:00:08.334Z,22.63
2019-01-05T23:05:58.589Z,18.53
2019-01-05T23:08:46.193Z,17.43
2019-01-05T23:11:41.741Z,19.10
2019-01-05T23:14:29.890Z,19.17
2019-01-05T23:17:19.093Z,22.70
2019-01-05T23:20:07.165Z,19.73
2019-01-05T23:22:48.514Z,22.30
2019-01-05T23:25:44.370Z,21.77
2019-01-05T23:31:41.866Z,25.37
2019-01-05T23:34:43.112Z,23.33
2019-01-05T23:37:45.342Z,26.97
2019-01-05T23:40:34.438Z,29.27
2019-01-05T23:43:15.438Z,30.30
2019-01-05T23:45:52.873Z,28.03
2019-01-05T23:48:40.678Z,29.13
2019-01-05T23:51:39.922Z,29.63
2019-01-05T23:54:28.058Z,28.33
